Time;durP1;ratioP1;P1;durP2;ratioP2;P2;SDS_P1;SDS_P2;PMS_P1;PMS_P2;Temp;Humidity;BMP_temperature;BMP_pressure;BME280_temperature;BME280_humidity;BME280_pressure;Samples;Min_cycle;Max_cycle;Signal;HPM_P1;HPM_P2
2022/12/29 00:01:14;;;;;;;4.93;3.65;;;12.00;99.90;;;;;;5067759;28;20025;-73
2022/12/29 00:03:40;;;;;;;4.47;3.70;;;12.00;99.90;;;;;;5063991;28;20421;-72
2022/12/29 00:06:05;;;;;;;4.60;3.72;;;12.00;99.90;;;;;;5066504;28;20085;-74
2022/12/29 00:08:40;;;;;;;4.88;3.55;;;12.10;99.90;;;;;;5066168;28;20021;-72
2022/12/29 00:11:13;;;;;;;6.07;3.63;;;12.00;99.90;;;;;;5066937;28;20024;-72
2022/12/29 00:16:24;;;;;;;3.00;2.70;;;12.00;99.90;;;;;;5063751;28;20047;-72
2022/12/29 00:18:50;;;;;;;2.72;2.50;;;12.00;99.90;;;;;;5066750;28;20079;-73
2022/12/29 00:35:09;;;;;;;3.47;2.30;;;12.00;99.90;;;;;;5064383;28;20081;-72
2022/12/29 00:45:56;;;;;;;3.05;1.50;;;12.00;99.90;;;;;;5061162;28;20090;-72
2022/12/29 00:51:07;;;;;;;2.10;1.48;;;12.00;99.90;;;;;;5063387;28;20090;-72
2022/12/29 00:53:33;;;;;;;1.70;1.30;;;12.00;99.90;;;;;;5065950;28;20052;-72
2022/12/29 00:56:00;;;;;;;1.50;1.40;;;11.90;99.90;;;;;;5063632;28;20048;-71
2022/12/29 00:58:29;;;;;;;3.38;1.30;;;11.90;99.90;;;;;;5066723;28;20094;-72
2022/12/29 01:01:06;;;;;;;0.85;0.77;;;12.00;99.90;;;;;;5062069;28;20025;-72
2022/12/29 01:03:33;;;;;;;2.30;0.95;;;12.00;99.90;;;;;;5063568;28;20024;-72
2022/12/29 01:06:07;;;;;;;2.38;1.20;;;12.00;99.90;;;;;;5062160;28;20586;-72
2022/12/29 01:08:33;;;;;;;1.75;0.88;;;12.00;99.90;;;;;;5063734;28;20119;-71
2022/12/29 01:11:10;;;;;;;1.02;0.93;;;12.00;99.90;;;;;;5065195;28;20025;-72
2022/12/29 01:13:38;;;;;;;1.67;0.95;;;12.00;99.90;;;;;;5066672;28;20028;-72
2022/12/29 01:16:04;;;;;;;4.82;1.20;;;12.00;99.90;;;;;;5066447;28;20177;-72
2022/12/29 01:18:30;;;;;;;2.60;0.90;;;12.00;99.90;;;;;;5073038;28;20032;-73
2022/12/29 01:21:04;;;;;;;4.78;1.05;;;12.10;99.90;;;;;;5071381;28;20492;-72
2022/12/29 01:23:30;;;;;;;2.00;0.75;;;12.10;99.90;;;;;;5067089;28;20063;-73
2022/12/29 01:25:56;;;;;;;1.55;1.00;;;12.10;99.90;;;;;;5072941;28;20043;-73
2022/12/29 01:28:22;;;;;;;2.47;0.93;;;12.10;99.90;;;;;;5065655;28;20064;-71
2022/12/29 01:30:48;;;;;;;2.72;0.70;;;12.10;99.90;;;;;;5068617;28;20070;-72
2022/12/29 01:33:13;;;;;;;2.75;1.15;;;12.10;99.90;;;;;;5065831;28;20028;-72
2022/12/29 01:35:39;;;;;;;2.03;1.02;;;12.10;99.90;;;;;;5068964;28;20112;-72
2022/12/29 01:38:05;;;;;;;2.08;0.80;;;12.10;99.90;;;;;;5073438;28;20029;-72
2022/12/29 01:40:31;;;;;;;1.50;0.82;;;12.10;99.90;;;;;;5074815;28;20072;-72
2022/12/29 01:42:57;;;;;;;1.98;0.80;;;12.10;99.90;;;;;;5073791;28;20055;-71
2022/12/29 01:45:22;;;;;;;1.58;0.80;;;12.10;99.90;;;;;;5077126;28;20475;-71
2022/12/29 01:47:53;;;;;;;1.10;0.80;;;12.10;99.90;;;;;;5073506;28;20032;-72
2022/12/29 01:50:30;;;;;;;2.03;0.90;;;12.10;99.90;;;;;;5080411;28;20027;-71
2022/12/29 01:53:00;;;;;;;1.83;0.88;;;12.10;99.90;;;;;;5066084;28;20058;-71
2022/12/29 01:55:31;;;;;;;1.63;0.88;;;12.10;99.90;;;;;;5069717;28;20068;-71
2022/12/29 01:58:00;;;;;;;2.45;0.70;;;12.00;99.90;;;;;;5033457;28;20539;-71
2022/12/29 02:00:26;;;;;;;1.83;0.90;;;12.00;99.90;;;;;;5065743;28;20048;-70
2022/12/29 02:02:53;;;;;;;4.47;1.77;;;12.10;99.90;;;;;;5067590;28;20048;-71
2022/12/29 02:05:52;;;;;;;3.03;0.77;;;12.10;99.90;;;;;;5070201;28;20453;-71
2022/12/29 02:08:20;;;;;;;2.85;0.70;;;12.00;99.90;;;;;;5062913;28;20102;-71
2022/12/29 02:10:47;;;;;;;2.08;1.08;;;12.00;99.90;;;;;;5066873;28;20025;-70
2022/12/29 02:13:16;;;;;;;8.88;1.08;;;12.00;99.90;;;;;;5068651;28;20028;-71
2022/12/29 02:15:51;;;;;;;5.28;1.13;;;12.10;99.90;;;;;;5070657;28;20024;-71
2022/12/29 02:18:37;;;;;;;2.95;0.90;;;12.10;99.90;;;;;;5062395;28;20068;-71
2022/12/29 02:21:31;;;;;;;3.05;1.15;;;12.10;99.90;;;;;;5062976;28;20040;-71
2022/12/29 02:24:27;;;;;;;3.83;1.00;;;12.10;99.90;;;;;;5068193;28;20068;-71
2022/12/29 02:27:01;;;;;;;5.50;0.98;;;12.00;99.90;;;;;;5067889;28;20059;-71
2022/12/29 02:29:42;;;;;;;5.18;1.27;;;12.10;99.90;;;;;;5069462;28;20033;-71
2022/12/29 02:32:23;;;;;;;4.90;1.25;;;12.00;99.90;;;;;;5066463;28;20019;-71
2022/12/29 02:35:05;;;;;;;3.75;1.50;;;12.00;99.90;;;;;;5068552;28;20025;-71
2022/12/29 02:37:42;;;;;;;2.47;0.90;;;12.00;99.90;;;;;;5067238;28;20040;-71
2022/12/29 02:40:22;;;;;;;3.47;1.40;;;12.00;99.90;;;;;;5070257;28;20097;-71
2022/12/29 02:43:02;;;;;;;6.75;1.20;;;12.00;99.90;;;;;;5069656;28;20082;-71
2022/12/29 02:45:42;;;;;;;4.25;1.20;;;12.00;99.90;;;;;;5068362;28;20146;-71
2022/12/29 02:48:28;;;;;;;1.73;1.00;;;12.00;99.90;;;;;;5068801;28;20115;-71
2022/12/29 02:51:09;;;;;;;4.47;1.13;;;11.90;99.90;;;;;;5068382;28;20533;-71
2022/12/29 02:56:20;;;;;;;1.38;0.75;;;11.90;99.90;;;;;;5068416;28;20032;-71
2022/12/29 02:58:46;;;;;;;2.33;1.08;;;11.90;99.90;;;;;;5065344;28;20162;-70
2022/12/29 03:01:33;;;;;;;3.25;0.90;;;11.80;99.90;;;;;;5066494;28;20607;-71
2022/12/29 03:03:59;;;;;;;3.55;0.50;;;11.80;99.90;;;;;;5068153;28;20052;-71
2022/12/29 03:06:51;;;;;;;1.25;0.50;;;11.70;99.90;;;;;;5067682;28;20079;-71
2022/12/29 03:09:47;;;;;;;1.00;0.43;;;11.60;99.90;;;;;;5059182;28;20037;-71
2022/12/29 03:18:22;;;;;;;3.13;0.50;;;11.50;99.90;;;;;;5069971;28;20230;-71
2022/12/29 03:20:50;;;;;;;4.45;0.57;;;11.40;99.90;;;;;;5069472;28;20077;-71
2022/12/29 03:23:19;;;;;;;1.88;0.52;;;11.40;99.90;;;;;;5069386;28;20016;-71
2022/12/29 03:25:49;;;;;;;1.85;0.60;;;11.40;99.90;;;;;;5066326;28;20020;-70
2022/12/29 03:28:29;;;;;;;2.63;0.57;;;11.40;99.90;;;;;;5065683;28;20026;-70
2022/12/29 03:30:57;;;;;;;2.25;0.55;;;11.40;99.90;;;;;;5067954;28;20059;-71
2022/12/29 03:33:26;;;;;;;2.42;0.50;;;11.40;99.90;;;;;;5064026;28;20024;-71
2022/12/29 03:35:58;;;;;;;1.75;0.40;;;11.30;99.90;;;;;;5068512;28;20028;-71
2022/12/29 03:38:47;;;;;;;3.77;1.00;;;11.30;99.90;;;;;;5068321;28;20029;-71
2022/12/29 03:41:19;;;;;;;2.95;0.35;;;11.30;99.90;;;;;;5068157;28;20013;-71
2022/12/29 03:43:45;;;;;;;2.40;0.43;;;11.30;99.90;;;;;;5065007;28;20528;-71
2022/12/29 03:46:11;;;;;;;2.13;0.38;;;11.30;99.90;;;;;;5066281;28;20041;-72
2022/12/29 03:48:37;;;;;;;1.88;0.40;;;11.30;99.90;;;;;;5064964;28;20021;-71
2022/12/29 03:51:02;;;;;;;2.72;0.50;;;11.30;99.90;;;;;;5067850;28;20028;-71
2022/12/29 03:53:28;;;;;;;3.25;0.43;;;11.30;99.90;;;;;;5067700;28;20024;-72
2022/12/29 03:55:53;;;;;;;2.08;0.40;;;11.20;99.90;;;;;;5067077;28;20696;-71
2022/12/29 03:58:19;;;;;;;3.63;0.40;;;11.30;99.90;;;;;;5068045;28;20050;-72
2022/12/29 04:00:44;;;;;;;1.55;0.82;;;11.20;99.90;;;;;;5066796;28;20027;-71
2022/12/29 04:03:10;;;;;;;2.25;0.43;;;11.20;99.90;;;;;;5066590;28;20036;-71
2022/12/29 04:05:36;;;;;;;1.45;0.32;;;11.20;99.90;;;;;;5066104;28;20066;-72
2022/12/29 04:08:01;;;;;;;3.67;1.88;;;11.00;99.90;;;;;;5066845;28;20036;-72
2022/12/29 04:10:27;;;;;;;2.22;0.30;;;11.00;99.90;;;;;;5068337;28;20036;-72
2022/12/29 04:12:52;;;;;;;2.80;0.43;;;11.00;99.90;;;;;;5066134;28;20036;-72
2022/12/29 04:15:18;;;;;;;3.42;0.43;;;11.00;99.90;;;;;;5067697;28;20103;-71
2022/12/29 04:17:43;;;;;;;5.28;0.70;;;11.00;99.90;;;;;;5062442;28;20047;-72
2022/12/29 04:22:59;;;;;;;5.03;0.70;;;11.10;99.90;;;;;;5065413;28;20392;-73
2022/12/29 04:25:25;;;;;;;3.55;0.80;;;11.00;99.90;;;;;;5064960;28;20017;-71
2022/12/29 04:27:50;;;;;;;6.43;0.70;;;11.00;99.90;;;;;;5064104;28;20039;-72
2022/12/29 04:30:16;;;;;;;3.95;0.82;;;11.00;99.90;;;;;;5062987;28;20480;-72
2022/12/29 04:32:41;;;;;;;4.38;0.52;;;11.00;99.90;;;;;;5066709;28;20028;-71
2022/12/29 04:35:07;;;;;;;2.25;0.63;;;10.90;99.90;;;;;;5065885;28;20017;-71
2022/12/29 04:37:33;;;;;;;4.43;0.68;;;10.90;99.90;;;;;;5069357;28;20036;-71
2022/12/29 04:39:59;;;;;;;6.38;0.90;;;11.00;99.90;;;;;;5067701;28;20032;-71
2022/12/29 04:42:24;;;;;;;2.97;0.70;;;10.90;99.90;;;;;;5065816;28;20020;-72
2022/12/29 04:44:50;;;;;;;1.15;0.30;;;11.00;99.90;;;;;;5064743;28;20024;-72
2022/12/29 04:47:15;;;;;;;1.80;1.00;;;11.00;99.90;;;;;;5066753;28;20044;-72
2022/12/29 04:49:41;;;;;;;2.03;0.50;;;10.90;99.90;;;;;;5069516;28;20031;-72
2022/12/29 04:52:08;;;;;;;1.85;0.38;;;10.90;99.90;;;;;;5071896;28;20106;-72
2022/12/29 04:54:34;;;;;;;2.97;0.50;;;10.90;99.90;;;;;;5074263;28;20032;-72
2022/12/29 04:56:59;;;;;;;3.55;0.60;;;10.90;99.90;;;;;;5064592;28;20031;-72
2022/12/29 04:59:25;;;;;;;5.03;1.15;;;10.80;99.90;;;;;;5069566;28;22552;-71
2022/12/29 05:01:50;;;;;;;3.95;0.80;;;10.80;99.90;;;;;;5068671;28;20043;-71
2022/12/29 05:04:16;;;;;;;2.05;0.40;;;10.80;99.90;;;;;;5067632;28;20027;-73
2022/12/29 05:06:42;;;;;;;2.75;0.55;;;10.80;99.90;;;;;;5069695;28;20465;-72
2022/12/29 05:09:07;;;;;;;3.88;0.75;;;10.80;99.90;;;;;;5071275;28;20033;-72
2022/12/29 05:11:33;;;;;;;6.90;0.98;;;10.80;99.90;;;;;;5067543;28;20113;-71
2022/12/29 05:13:58;;;;;;;6.85;0.90;;;10.70;99.90;;;;;;5068395;28;20027;-72
2022/12/29 05:16:24;;;;;;;5.95;1.77;;;10.70;99.90;;;;;;5071382;28;20499;-72
2022/12/29 05:18:49;;;;;;;6.18;1.17;;;10.70;99.90;;;;;;5068099;28;20052;-71
2022/12/29 05:21:15;;;;;;;8.00;1.15;;;10.70;99.90;;;;;;5071066;28;20397;-71
2022/12/29 05:23:40;;;;;;;3.67;1.15;;;10.70;99.90;;;;;;5067175;28;20044;-71
2022/12/29 05:26:06;;;;;;;5.15;0.88;;;10.70;99.90;;;;;;5071834;28;20075;-70
2022/12/29 05:28:32;;;;;;;4.68;1.10;;;10.70;99.90;;;;;;5070891;28;20025;-71
2022/12/29 05:30:57;;;;;;;9.38;1.23;;;10.80;99.90;;;;;;5069501;28;20063;-71
2022/12/29 05:33:23;;;;;;;3.67;1.40;;;10.80;99.90;;;;;;5065046;28;20056;-71
2022/12/29 05:35:48;;;;;;;5.03;1.05;;;10.90;99.90;;;;;;5068342;28;20373;-70
2022/12/29 05:38:14;;;;;;;4.47;1.40;;;10.80;99.90;;;;;;5069673;28;20033;-70
2022/12/29 05:40:40;;;;;;;4.85;1.10;;;10.90;99.90;;;;;;5071747;28;20025;-70
2022/12/29 05:43:05;;;;;;;5.32;1.00;;;10.80;99.90;;;;;;5070293;28;20028;-70
2022/12/29 05:45:31;;;;;;;4.80;0.82;;;10.80;99.90;;;;;;5065395;28;20062;-71
2022/12/29 05:47:56;;;;;;;7.43;1.05;;;10.80;99.90;;;;;;5070779;28;20118;-69
2022/12/29 05:50:22;;;;;;;3.53;0.88;;;10.80;99.90;;;;;;5069498;28;20036;-71
2022/12/29 05:52:48;;;;;;;5.35;1.20;;;10.80;99.90;;;;;;5070124;28;20012;-71
2022/12/29 05:55:13;;;;;;;4.30;1.02;;;10.80;99.90;;;;;;5068354;28;20025;-71
2022/12/29 05:57:39;;;;;;;1.95;0.60;;;10.90;99.90;;;;;;5068817;28;20052;-71
2022/12/29 06:00:06;;;;;;;6.10;1.15;;;10.90;99.90;;;;;;5069582;28;20392;-70
2022/12/29 06:02:31;;;;;;;5.25;0.80;;;10.90;99.90;;;;;;5067378;28;20476;-71
2022/12/29 06:04:57;;;;;;;7.72;1.30;;;10.90;99.90;;;;;;5068112;28;20115;-71
2022/12/29 06:07:22;;;;;;;5.03;1.00;;;10.90;99.90;;;;;;5070031;28;20111;-70
2022/12/29 06:09:48;;;;;;;8.75;1.40;;;10.90;99.90;;;;;;5069112;28;20024;-71
2022/12/29 06:12:14;;;;;;;6.10;0.95;;;10.90;99.90;;;;;;5066295;28;20610;-71
2022/12/29 06:14:39;;;;;;;8.32;1.30;;;10.90;99.90;;;;;;5068804;28;20115;-71
2022/12/29 06:17:05;;;;;;;3.58;1.33;;;11.00;99.90;;;;;;5068270;28;20025;-70
2022/12/29 06:19:30;;;;;;;4.55;1.10;;;11.00;99.90;;;;;;5072483;28;20117;-71
2022/12/29 06:21:56;;;;;;;5.47;0.90;;;11.00;99.90;;;;;;5064321;28;20031;-70
2022/12/29 06:24:22;;;;;;;7.75;0.82;;;11.00;99.90;;;;;;5067357;28;20020;-71
2022/12/29 06:26:47;;;;;;;8.20;1.55;;;11.00;99.90;;;;;;5067628;28;20020;-70
2022/12/29 06:29:16;;;;;;;8.23;0.88;;;11.00;99.90;;;;;;5069086;28;20025;-72
2022/12/29 06:31:43;;;;;;;6.60;1.60;;;11.10;99.90;;;;;;5066768;28;20403;-70
2022/12/29 06:34:08;;;;;;;8.27;1.15;;;11.10;99.90;;;;;;5066027;28;20106;-70
2022/12/29 06:41:45;;;;;;;3.22;1.10;;;11.10;99.90;;;;;;4827063;23;19928;-72
2022/12/29 06:44:10;;;;;;;5.90;1.35;;;11.10;99.90;;;;;;5014333;23;20050;-71
2022/12/29 06:46:36;;;;;;;11.18;1.30;;;11.10;99.90;;;;;;4994078;28;20019;-71
2022/12/29 06:49:02;;;;;;;11.85;1.17;;;11.20;99.90;;;;;;4994903;28;20034;-71
2022/12/29 06:51:28;;;;;;;9.65;1.38;;;11.20;99.90;;;;;;4987510;28;20062;-71
2022/12/29 06:53:53;;;;;;;4.25;1.00;;;11.20;99.90;;;;;;4990101;28;20045;-72
2022/12/29 06:56:19;;;;;;;11.68;1.55;;;11.10;99.90;;;;;;4998461;28;20492;-71
2022/12/29 06:58:44;;;;;;;9.52;1.52;;;11.20;99.90;;;;;;4982685;28;20158;-70
2022/12/29 07:01:10;;;;;;;6.68;1.25;;;11.30;99.90;;;;;;4986203;28;20042;-72
2022/12/29 07:03:36;;;;;;;5.50;1.10;;;11.20;99.90;;;;;;4982732;28;20541;-72
2022/12/29 07:06:01;;;;;;;14.32;4.00;;;11.20;99.90;;;;;;4981437;28;20673;-72
2022/12/29 07:08:27;;;;;;;6.15;1.30;;;11.10;99.90;;;;;;4987858;28;20486;-72
2022/12/29 07:10:52;;;;;;;11.25;1.60;;;11.10;99.90;;;;;;4991225;28;20045;-72
2022/12/29 07:13:18;;;;;;;9.23;1.77;;;11.10;99.90;;;;;;4988747;28;20041;-72
2022/12/29 07:15:43;;;;;;;6.90;1.40;;;11.00;99.90;;;;;;4989108;28;20148;-72
2022/12/29 07:18:09;;;;;;;11.25;1.67;;;11.00;99.90;;;;;;4985262;28;20031;-72
2022/12/29 07:20:35;;;;;;;7.25;1.48;;;11.00;99.90;;;;;;4990390;28;20030;-73
2022/12/29 07:23:02;;;;;;;9.32;1.40;;;11.00;99.90;;;;;;4992965;28;20125;-72
2022/12/29 07:25:29;;;;;;;8.00;1.73;;;11.00;99.90;;;;;;4990517;28;20018;-72
2022/12/29 07:27:54;;;;;;;8.05;1.48;;;11.10;99.90;;;;;;4988076;28;20033;-73
2022/12/29 07:30:20;;;;;;;8.52;1.73;;;11.10;99.90;;;;;;4992599;28;20034;-72
2022/12/29 07:32:46;;;;;;;9.00;1.60;;;11.00;99.90;;;;;;4985090;28;20474;-72
2022/12/29 07:35:11;;;;;;;8.82;1.60;;;11.00;99.90;;;;;;4985758;28;20105;-73
2022/12/29 07:37:37;;;;;;;7.60;1.45;;;11.00;99.90;;;;;;4992725;28;20030;-71
2022/12/29 07:40:03;;;;;;;9.68;2.08;;;11.00;99.90;;;;;;4986698;28;20063;-71
2022/12/29 07:42:29;;;;;;;5.38;1.50;;;11.10;99.90;;;;;;4992393;28;20038;-72
2022/12/29 07:44:54;;;;;;;9.07;1.73;;;11.10;99.90;;;;;;5004352;28;20080;-71
2022/12/29 07:47:20;;;;;;;7.20;1.48;;;11.10;99.90;;;;;;4996610;28;20038;-71
2022/12/29 07:49:46;;;;;;;10.10;1.80;;;11.00;99.90;;;;;;4999502;28;20477;-72
2022/12/29 07:52:12;;;;;;;6.28;1.75;;;11.10;99.90;;;;;;4989155;28;20030;-72
2022/12/29 07:54:37;;;;;;;10.38;1.40;;;11.10;99.90;;;;;;5001905;28;20021;-72
2022/12/29 07:57:04;;;;;;;8.63;1.52;;;11.10;99.90;;;;;;5008340;28;20472;-71
2022/12/29 07:59:30;;;;;;;8.85;1.70;;;11.10;99.90;;;;;;5008559;28;20033;-71
2022/12/29 08:01:55;;;;;;;13.13;2.05;;;11.10;99.90;;;;;;4980847;28;20041;-72
2022/12/29 08:04:21;;;;;;;7.25;1.85;;;11.10;99.90;;;;;;4966023;28;20104;-72
2022/12/29 08:06:47;;;;;;;7.32;1.90;;;11.00;99.90;;;;;;4985616;28;20116;-72
2022/12/29 08:09:13;;;;;;;8.57;1.52;;;11.00;99.90;;;;;;5006210;28;20038;-71
2022/12/29 08:11:38;;;;;;;7.68;1.50;;;11.00;99.90;;;;;;5010495;28;20548;-71
2022/12/29 08:14:04;;;;;;;9.75;1.77;;;11.10;99.90;;;;;;5009966;28;20056;-72
2022/12/29 08:16:30;;;;;;;5.70;1.42;;;11.10;99.90;;;;;;5008818;28;20421;-73
2022/12/29 08:18:56;;;;;;;11.07;1.77;;;11.20;99.90;;;;;;5008456;28;20042;-72
2022/12/29 08:21:22;;;;;;;8.60;1.38;;;11.20;99.90;;;;;;4985347;28;20056;-72
2022/12/29 08:23:48;;;;;;;11.40;1.40;;;11.10;99.90;;;;;;5008817;28;20457;-72
2022/12/29 08:26:13;;;;;;;7.80;1.42;;;11.20;99.90;;;;;;5010255;28;20033;-72
2022/12/29 08:28:39;;;;;;;8.38;1.73;;;11.20;99.90;;;;;;5008940;28;20400;-73
2022/12/29 08:31:05;;;;;;;9.60;1.70;;;11.20;99.90;;;;;;5010099;28;20038;-72
2022/12/29 08:33:30;;;;;;;8.48;1.67;;;11.20;99.90;;;;;;5007967;28;20030;-72
2022/12/29 08:36:04;;;;;;;7.82;1.85;;;11.20;99.90;;;;;;5011416;28;20025;-72
2022/12/29 08:38:30;;;;;;;6.97;1.90;;;11.20;99.90;;;;;;5009950;28;20040;-72
2022/12/29 08:40:56;;;;;;;8.30;1.73;;;11.20;99.90;;;;;;5010340;28;20136;-73
2022/12/29 08:43:22;;;;;;;7.80;2.13;;;11.20;99.90;;;;;;5004112;28;20374;-72
2022/12/29 08:45:48;;;;;;;8.70;1.95;;;11.20;99.90;;;;;;4990788;28;20025;-72
2022/12/29 08:48:17;;;;;;;7.88;1.65;;;11.30;99.90;;;;;;5008837;28;20022;-72
2022/12/29 08:50:44;;;;;;;7.95;1.63;;;11.30;99.90;;;;;;5008706;28;20028;-72
2022/12/29 08:53:09;;;;;;;6.90;1.35;;;11.30;99.90;;;;;;4990868;28;20053;-72
2022/12/29 08:55:35;;;;;;;8.88;2.05;;;11.30;99.90;;;;;;5007753;28;20433;-72
2022/12/29 08:58:01;;;;;;;6.40;1.73;;;11.30;99.90;;;;;;5009397;28;20040;-72
2022/12/29 09:00:26;;;;;;;6.55;1.35;;;11.40;99.90;;;;;;5007199;28;20109;-72
2022/12/29 09:02:52;;;;;;;10.95;2.30;;;11.40;99.90;;;;;;5007524;28;20381;-72
2022/12/29 09:05:18;;;;;;;12.15;2.47;;;11.40;99.90;;;;;;5009357;28;20105;-72
2022/12/29 09:07:43;;;;;;;9.98;1.70;;;11.50;99.90;;;;;;5004791;28;20033;-72
2022/12/29 09:10:09;;;;;;;9.38;1.90;;;11.50;99.90;;;;;;5007009;28;20019;-72
2022/12/29 09:12:35;;;;;;;15.88;2.10;;;11.40;99.90;;;;;;5010286;28;20030;-72
2022/12/29 09:15:01;;;;;;;11.15;2.15;;;11.50;99.90;;;;;;5007503;28;20093;-71
2022/12/29 09:17:45;;;;;;;6.95;1.85;;;11.40;99.90;;;;;;5008847;28;20041;-72
2022/12/29 09:20:16;;;;;;;9.68;2.28;;;11.40;99.90;;;;;;5008534;28;20033;-72
2022/12/29 09:22:43;;;;;;;8.00;1.92;;;11.40;99.90;;;;;;5003310;28;20495;-72
2022/12/29 09:25:10;;;;;;;9.02;1.65;;;11.50;99.90;;;;;;5006420;28;20037;-72
2022/12/29 09:27:36;;;;;;;8.77;2.33;;;11.50;99.90;;;;;;5005253;28;20041;-72
2022/12/29 09:30:07;;;;;;;7.00;1.70;;;11.60;99.90;;;;;;5006119;28;20022;-72
2022/12/29 09:32:33;;;;;;;7.88;1.83;;;11.60;99.90;;;;;;5003759;28;20033;-72
2022/12/29 09:34:59;;;;;;;9.98;2.17;;;11.60;99.90;;;;;;4989141;28;20030;-72
2022/12/29 09:37:24;;;;;;;9.57;1.98;;;11.60;99.90;;;;;;5008504;28;20501;-73
2022/12/29 09:39:50;;;;;;;7.88;1.92;;;11.60;99.90;;;;;;5009684;28;20579;-72
2022/12/29 09:42:44;;;;;;;15.43;2.38;;;11.60;99.90;;;;;;5010687;28;20026;-72
2022/12/29 09:45:14;;;;;;;13.25;2.35;;;11.60;99.90;;;;;;5008691;28;20030;-72
2022/12/29 09:47:42;;;;;;;8.10;1.80;;;11.70;99.90;;;;;;5012120;28;20029;-72
2022/12/29 09:50:32;;;;;;;9.65;2.03;;;11.70;99.90;;;;;;4993168;28;20030;-73
2022/12/29 09:53:04;;;;;;;9.65;1.98;;;11.80;99.90;;;;;;5005454;28;20473;-72
2022/12/29 09:55:43;;;;;;;11.52;1.92;;;11.90;99.90;;;;;;5010659;28;20113;-73
2022/12/29 09:58:29;;;;;;;6.65;1.42;;;12.00;99.90;;;;;;5009860;28;20022;-73
2022/12/29 10:00:59;;;;;;;10.05;1.92;;;12.00;99.90;;;;;;5007574;28;20025;-71
2022/12/29 10:03:31;;;;;;;9.77;1.88;;;12.10;99.90;;;;;;5006011;28;20049;-72
2022/12/29 10:06:06;;;;;;;13.05;2.03;;;12.10;99.90;;;;;;4993956;28;20022;-72
2022/12/29 10:09:08;;;;;;;11.65;2.03;;;12.00;99.90;;;;;;5010012;28;20025;-72
2022/12/29 10:11:56;;;;;;;6.43;1.50;;;12.00;99.90;;;;;;4994831;28;20037;-72
2022/12/29 10:14:39;;;;;;;15.23;2.45;;;12.00;99.90;;;;;;5011149;28;20030;-73
2022/12/29 10:17:38;;;;;;;9.23;2.47;;;12.00;99.90;;;;;;4994378;28;20095;-72
2022/12/29 10:20:19;;;;;;;7.85;2.20;;;11.90;99.90;;;;;;5004517;28;20038;-72
2022/12/29 10:23:23;;;;;;;9.82;2.55;;;11.80;99.90;;;;;;5009240;28;20385;-72
2022/12/29 10:25:51;;;;;;;9.93;1.90;;;11.80;99.90;;;;;;4947233;28;20042;-72
2022/12/29 10:28:22;;;;;;;7.60;2.35;;;11.90;99.90;;;;;;4999969;28;20026;-72
2022/12/29 10:30:49;;;;;;;9.02;1.70;;;11.80;99.90;;;;;;5009861;28;20105;-72
2022/12/29 10:33:41;;;;;;;8.65;1.88;;;11.80;99.90;;;;;;5011974;28;20440;-72
2022/12/29 10:36:17;;;;;;;10.50;2.08;;;11.80;99.90;;;;;;4998748;28;20049;-71
2022/12/29 10:38:58;;;;;;;12.88;2.05;;;11.80;99.90;;;;;;4994914;28;20451;-72
2022/12/29 10:41:36;;;;;;;11.23;1.77;;;11.90;99.90;;;;;;5005722;28;20105;-72
2022/12/29 10:44:01;;;;;;;10.30;1.65;;;11.90;99.90;;;;;;5011437;28;20444;-72
2022/12/29 10:46:34;;;;;;;11.93;2.15;;;12.00;99.90;;;;;;5005942;28;20461;-73
2022/12/29 10:49:01;;;;;;;12.02;1.92;;;11.90;99.90;;;;;;4993214;28;20175;-72
2022/12/29 10:51:38;;;;;;;10.65;1.70;;;11.90;99.90;;;;;;5010382;28;20366;-73
2022/12/29 10:54:13;;;;;;;8.90;1.83;;;11.90;99.90;;;;;;4994215;28;20559;-72
2022/12/29 10:56:47;;;;;;;9.90;1.80;;;12.00;99.90;;;;;;4994158;28;20026;-72
2022/12/29 10:59:22;;;;;;;11.45;1.80;;;11.90;99.90;;;;;;4993229;28;20040;-72
2022/12/29 11:02:11;;;;;;;6.35;1.50;;;11.80;99.90;;;;;;5007139;28;20069;-72
2022/12/29 11:04:50;;;;;;;17.23;2.35;;;11.90;99.90;;;;;;4989058;28;20029;-72
2022/12/29 11:07:18;;;;;;;13.88;2.17;;;12.00;99.90;;;;;;5009230;28;20053;-73
2022/12/29 11:09:45;;;;;;;10.45;1.80;;;12.00;99.90;;;;;;4994394;28;20025;-73
2022/12/29 11:12:30;;;;;;;14.68;3.20;;;12.00;99.90;;;;;;5008987;28;20026;-72
2022/12/29 11:15:02;;;;;;;11.95;2.55;;;12.10;99.90;;;;;;5010425;28;20029;-72
2022/12/29 11:17:27;;;;;;;8.98;1.80;;;12.10;99.90;;;;;;5002552;28;20432;-72
2022/12/29 11:19:53;;;;;;;11.95;1.80;;;12.10;99.90;;;;;;5010199;28;20033;-72
2022/12/29 11:22:28;;;;;;;8.15;2.00;;;12.10;99.90;;;;;;5007221;28;20106;-73
2022/12/29 11:25:04;;;;;;;8.48;1.60;;;11.90;99.90;;;;;;5006396;28;20381;-74
2022/12/29 11:27:30;;;;;;;13.35;2.10;;;12.00;99.90;;;;;;4992956;28;20059;-73
2022/12/29 11:29:55;;;;;;;12.00;2.28;;;12.10;99.90;;;;;;4993032;28;20045;-73
2022/12/29 11:32:24;;;;;;;9.57;2.10;;;12.00;99.90;;;;;;5007722;28;20018;-74
2022/12/29 11:34:50;;;;;;;9.10;2.00;;;12.00;99.90;;;;;;5006629;28;20142;-75
2022/12/29 11:37:19;;;;;;;8.55;2.17;;;12.10;99.90;;;;;;5003005;28;20073;-74
2022/12/29 11:39:57;;;;;;;9.20;1.90;;;12.10;99.90;;;;;;5009462;28;20564;-74
2022/12/29 11:42:31;;;;;;;6.40;2.03;;;12.10;99.90;;;;;;5001643;28;20034;-75
2022/12/29 11:45:03;;;;;;;8.40;1.98;;;12.10;99.90;;;;;;4990966;28;20022;-75
2022/12/29 11:47:31;;;;;;;10.82;2.17;;;12.10;99.90;;;;;;4985548;28;20036;-74
2022/12/29 11:50:01;;;;;;;12.43;2.85;;;12.20;99.90;;;;;;5008034;28;20400;-74
2022/12/29 11:52:33;;;;;;;11.68;2.28;;;12.10;99.90;;;;;;5002480;28;20021;-74
2022/12/29 11:55:01;;;;;;;8.30;2.25;;;12.20;99.90;;;;;;5009828;28;20018;-75
2022/12/29 11:57:27;;;;;;;9.15;1.85;;;12.10;99.90;;;;;;4991112;28;20026;-75
2022/12/29 11:59:55;;;;;;;10.88;2.58;;;12.10;99.90;;;;;;5006765;28;20108;-74
2022/12/29 12:02:53;;;;;;;9.40;1.95;;;12.10;99.90;;;;;;4989659;28;20160;-73
2022/12/29 12:05:53;;;;;;;10.35;2.28;;;12.20;99.90;;;;;;5007749;28;20508;-73
2022/12/29 12:08:37;;;;;;;13.20;2.90;;;12.20;99.90;;;;;;5000519;28;20478;-73
2022/12/29 12:11:13;;;;;;;6.30;2.05;;;12.30;99.90;;;;;;4992844;28;20028;-74
2022/12/29 12:13:51;;;;;;;8.18;2.05;;;12.20;99.90;;;;;;4986992;28;20088;-73
2022/12/29 12:16:21;;;;;;;12.63;2.60;;;12.20;99.90;;;;;;5006819;28;20056;-73
2022/12/29 12:18:54;;;;;;;10.85;2.10;;;12.20;99.90;;;;;;4988578;28;20046;-73
2022/12/29 12:21:43;;;;;;;7.13;1.90;;;12.10;99.90;;;;;;5007520;28;20053;-74
2022/12/29 12:24:20;;;;;;;10.57;2.53;;;12.10;99.90;;;;;;5005041;28;20026;-74
2022/12/29 12:27:00;;;;;;;9.32;1.63;;;12.10;99.90;;;;;;5007156;28;20021;-74
2022/12/29 12:29:56;;;;;;;14.60;2.15;;;12.00;99.90;;;;;;5004557;28;20038;-73
2022/12/29 12:32:42;;;;;;;9.60;2.03;;;12.00;99.90;;;;;;5007690;28;20033;-73
2022/12/29 12:35:21;;;;;;;12.13;2.30;;;12.00;99.90;;;;;;5009255;28;20030;-73
2022/12/29 12:38:21;;;;;;;8.30;2.45;;;12.00;99.90;;;;;;4984895;28;20034;-73
2022/12/29 12:41:02;;;;;;;16.00;3.13;;;12.00;99.90;;;;;;5020716;28;20041;-73
2022/12/29 12:43:41;;;;;;;14.98;2.90;;;12.00;99.90;;;;;;5007891;28;20037;-73
2022/12/29 12:46:07;;;;;;;13.70;2.90;;;12.10;99.90;;;;;;5004526;28;20034;-73
2022/12/29 12:48:35;;;;;;;17.02;2.97;;;12.00;99.90;;;;;;4988205;28;20117;-75
2022/12/29 12:51:13;;;;;;;8.60;2.53;;;12.00;99.90;;;;;;4990443;28;20029;-75
2022/12/29 12:54:13;;;;;;;9.85;2.90;;;11.90;99.90;;;;;;5008399;28;20022;-75
2022/12/29 12:57:09;;;;;;;11.40;2.42;;;12.00;99.90;;;;;;5009935;28;20092;-75
2022/12/29 12:59:49;;;;;;;14.57;2.67;;;11.90;99.90;;;;;;4987511;28;20033;-75
2022/12/29 13:02:47;;;;;;;12.07;2.25;;;12.00;99.90;;;;;;5021243;28;22039;-75
2022/12/29 13:05:40;;;;;;;11.57;2.50;;;11.80;99.90;;;;;;5008360;28;20441;-75
2022/12/29 13:08:25;;;;;;;9.38;2.33;;;11.90;99.90;;;;;;5005632;28;20033;-74
2022/12/29 13:10:54;;;;;;;14.38;2.97;;;11.90;99.90;;;;;;4990891;28;20113;-75
2022/12/29 13:13:31;;;;;;;12.45;2.15;;;11.80;99.90;;;;;;5025343;28;20034;-75
2022/12/29 13:16:25;;;;;;;11.65;3.10;;;11.90;99.90;;;;;;5006432;28;20052;-75
2022/12/29 13:19:26;;;;;;;14.43;2.83;;;11.90;99.90;;;;;;5025434;28;20579;-75
2022/12/29 13:22:36;;;;;;;14.35;2.78;;;11.90;99.90;;;;;;5028691;28;20165;-75
2022/12/29 13:25:21;;;;;;;19.38;3.17;;;11.90;99.90;;;;;;4987236;28;20038;-75
2022/12/29 13:28:08;;;;;;;12.90;2.90;;;11.90;99.90;;;;;;4994957;28;20017;-74
2022/12/29 13:30:43;;;;;;;8.40;2.75;;;11.90;99.90;;;;;;4992859;28;20026;-75
2022/12/29 13:33:46;;;;;;;12.38;2.53;;;12.00;99.90;;;;;;5005060;28;20030;-75
2022/12/29 13:36:33;;;;;;;13.48;2.30;;;11.90;99.90;;;;;;4996855;28;20108;-75
2022/12/29 13:39:10;;;;;;;13.63;2.60;;;11.90;99.90;;;;;;5012279;28;20030;-75
2022/12/29 13:41:43;;;;;;;11.50;2.45;;;11.90;99.90;;;;;;5011604;28;20018;-75
2022/12/29 13:44:15;;;;;;;8.20;2.10;;;12.00;99.90;;;;;;5019005;28;20059;-74
2022/12/29 13:46:45;;;;;;;9.82;2.10;;;12.00;99.90;;;;;;4992410;28;20029;-74
2022/12/29 13:49:14;;;;;;;8.27;2.28;;;11.90;99.90;;;;;;5007136;28;20048;-75
2022/12/29 13:51:58;;;;;;;11.85;2.22;;;11.90;99.90;;;;;;5011942;28;20033;-74